Time;durP1;ratioP1;P1;durP2;ratioP2;P2;SDS_P1;SDS_P2;PMS_P1;PMS_P2;Temp;Humidity;BMP_temperature;BMP_pressure;BME280_temperature;BME280_humidity;BME280_pressure;Samples;Min_cycle;Max_cycle;Signal;HPM_P1;HPM_P2
2022/03/16 00:01:52;;;;;;;109.18;72.82;;;;;;;-1.54;100.00;102297.31;5037074;28;20046;-80
2022/03/16 00:04:19;;;;;;;147.90;81.85;;;;;;;-1.79;100.00;102297.88;5024815;28;20461;-80
2022/03/16 00:06:45;;;;;;;116.20;75.10;;;;;;;-1.80;100.00;102313.59;5021126;28;20441;-79
2022/03/16 00:09:12;;;;;;;112.43;74.45;;;;;;;-1.70;100.00;102306.94;5023780;28;20049;-80
2022/03/16 00:11:40;;;;;;;118.60;74.50;;;;;;;-1.52;100.00;102312.84;5029039;28;20116;-79
2022/03/16 00:14:07;;;;;;;83.97;69.90;;;;;;;-1.47;100.00;102322.09;5016770;28;20058;-79
2022/03/16 00:16:34;;;;;;;70.13;62.28;;;;;;;-1.95;100.00;102313.53;5017584;28;20050;-81
2022/03/16 00:19:02;;;;;;;62.50;55.95;;;;;;;-1.63;100.00;102303.91;5026852;28;20049;-81
2022/03/16 00:21:29;;;;;;;58.42;52.75;;;;;;;-1.52;100.00;102310.25;5020686;28;20062;-80
2022/03/16 00:23:56;;;;;;;60.53;54.97;;;;;;;-1.40;100.00;102301.72;5023288;28;20134;-80
2022/03/16 00:26:22;;;;;;;57.33;51.92;;;;;;;-1.34;100.00;102308.34;5025601;28;20042;-78
2022/03/16 00:28:49;;;;;;;82.20;55.58;;;;;;;-1.32;100.00;102314.31;5024772;28;20061;-80
2022/03/16 00:31:16;;;;;;;60.85;51.13;;;;;;;-1.22;100.00;102285.00;5016726;28;20058;-80
2022/03/16 00:33:43;;;;;;;83.25;61.35;;;;;;;-1.59;100.00;102278.50;5017491;28;20120;-79
2022/03/16 00:36:11;;;;;;;92.43;67.03;;;;;;;-1.43;100.00;102278.44;5027380;28;20042;-78
2022/03/16 00:38:38;;;;;;;89.38;65.30;;;;;;;-1.36;100.00;102261.53;5017043;28;20494;-81
2022/03/16 00:41:04;;;;;;;75.50;61.00;;;;;;;-1.25;100.00;102253.88;5029042;28;20423;-78
2022/03/16 00:43:31;;;;;;;68.53;58.22;;;;;;;-1.09;100.00;102243.41;5032107;28;20045;-80
2022/03/16 00:45:58;;;;;;;78.32;70.18;;;;;;;-1.02;100.00;102239.47;5037559;28;20136;-79
2022/03/16 00:48:25;;;;;;;72.15;65.75;;;;;;;-0.88;100.00;102235.19;5031869;28;20046;-79
2022/03/16 00:50:51;;;;;;;108.55;82.05;;;;;;;-0.86;100.00;102230.72;5031364;28;20061;-80
2022/03/16 00:53:20;;;;;;;206.07;110.32;;;;;;;-0.73;100.00;102242.06;5027782;28;20107;-81
2022/03/16 00:55:46;;;;;;;85.10;76.18;;;;;;;-0.77;100.00;102237.97;5028820;28;20139;-81
2022/03/16 00:58:13;;;;;;;81.72;68.93;;;;;;;-1.29;100.00;102225.50;5023172;28;20485;-82
2022/03/16 01:00:40;;;;;;;78.38;65.85;;;;;;;-1.67;100.00;102219.00;5034826;28;20115;-82
2022/03/16 01:03:06;;;;;;;73.78;63.08;;;;;;;-1.58;100.00;102235.03;5032244;28;20057;-80
2022/03/16 01:05:33;;;;;;;81.13;63.00;;;;;;;-1.77;100.00;102225.69;5027256;28;20057;-81
2022/03/16 01:08:00;;;;;;;62.83;56.22;;;;;;;-1.78;100.00;102208.38;5024593;28;20060;-80
2022/03/16 01:10:28;;;;;;;67.95;61.17;;;;;;;-1.61;100.00;102215.22;5027197;28;20115;-81
2022/03/16 01:12:55;;;;;;;74.63;66.53;;;;;;;-1.40;100.00;102218.31;5022884;28;20053;-79
2022/03/16 01:15:23;;;;;;;75.15;67.65;;;;;;;-1.80;100.00;102217.22;5025487;28;20099;-80
2022/03/16 01:17:50;;;;;;;73.32;65.60;;;;;;;-1.63;100.00;102219.69;5033942;28;20454;-79
2022/03/16 01:20:17;;;;;;;81.10;73.30;;;;;;;-1.43;100.00;102231.53;5022092;28;20530;-80
2022/03/16 01:22:43;;;;;;;363.65;160.68;;;;;;;-1.26;100.00;102231.38;5026700;28;20047;-79
2022/03/16 01:25:11;;;;;;;165.57;95.68;;;;;;;-1.26;100.00;102220.94;5026387;28;20049;-79
2022/03/16 01:27:39;;;;;;;122.97;78.80;;;;;;;-1.61;100.00;102212.59;5030017;28;20045;-81
2022/03/16 01:30:07;;;;;;;281.92;126.97;;;;;;;-1.33;100.00;102217.03;5032432;28;20049;-80
2022/03/16 01:32:34;;;;;;;296.90;128.20;;;;;;;-1.41;100.00;102211.44;5032221;28;20050;-81
2022/03/16 01:35:01;;;;;;;434.15;187.80;;;;;;;-1.24;100.00;102213.00;5029353;28;20049;-82
2022/03/16 01:37:30;;;;;;;187.13;99.82;;;;;;;-1.13;100.00;102202.78;5026556;28;20053;-79
2022/03/16 01:39:57;;;;;;;139.13;87.63;;;;;;;-1.07;100.00;102193.75;5019713;28;20060;-79
2022/03/16 01:42:25;;;;;;;252.27;118.63;;;;;;;-1.52;100.00;102203.41;5029707;28;20054;-78
2022/03/16 01:44:56;;;;;;;247.10;121.93;;;;;;;-1.32;100.00;102189.19;5028956;28;20441;-79
2022/03/16 01:47:24;;;;;;;173.98;103.45;;;;;;;-1.08;100.00;102187.69;5029871;28;20081;-79
2022/03/16 01:49:54;;;;;;;116.55;82.95;;;;;;;-1.10;100.00;102181.72;5024920;28;20069;-80
2022/03/16 01:52:23;;;;;;;81.32;72.78;;;;;;;-1.03;100.00;102188.25;5026354;28;20038;-79
2022/03/16 01:54:51;;;;;;;81.15;72.20;;;;;;;-0.97;100.00;102180.06;5026522;28;20462;-78
2022/03/16 01:57:19;;;;;;;134.85;88.90;;;;;;;-1.30;100.00;102182.97;5023484;28;20045;-79
2022/03/16 01:59:47;;;;;;;352.23;174.15;;;;;;;-0.94;100.00;102181.59;5029123;28;20066;-81
2022/03/16 02:02:15;;;;;;;77.80;68.93;;;;;;;-0.95;100.00;102182.56;5030542;28;20045;-80
2022/03/16 02:04:44;;;;;;;80.13;69.70;;;;;;;-0.90;100.00;102195.31;5027147;28;20072;-81
2022/03/16 02:07:11;;;;;;;75.63;67.72;;;;;;;-0.92;100.00;102195.41;5020700;28;20453;-80
2022/03/16 02:09:39;;;;;;;70.32;63.40;;;;;;;-0.99;100.00;102170.66;5020692;28;20379;-82
2022/03/16 02:12:07;;;;;;;73.95;66.45;;;;;;;-0.92;100.00;102161.50;5027526;28;20131;-81
2022/03/16 02:14:34;;;;;;;106.15;78.47;;;;;;;-0.97;100.00;102160.94;5031840;28;20049;-80
2022/03/16 02:17:01;;;;;;;67.85;61.25;;;;;;;-1.04;100.00;102160.47;5032589;28;20045;-79
2022/03/16 02:19:29;;;;;;;72.32;65.28;;;;;;;-1.02;100.00;102149.97;5024803;28;20050;-80
2022/03/16 02:21:58;;;;;;;69.32;62.83;;;;;;;-0.97;100.00;102156.59;5017600;28;20041;-80
2022/03/16 02:24:29;;;;;;;71.55;65.25;;;;;;;-0.96;100.00;102142.59;5025084;28;20046;-80
2022/03/16 02:26:56;;;;;;;70.05;63.58;;;;;;;-0.95;100.00;102139.03;5022586;28;20478;-78
2022/03/16 02:29:22;;;;;;;66.90;60.60;;;;;;;-0.76;100.00;102145.72;5020587;28;20502;-81
2022/03/16 02:31:49;;;;;;;56.80;51.55;;;;;;;-0.74;100.00;102151.69;5020619;28;20064;-79
2022/03/16 02:34:16;;;;;;;82.95;61.88;;;;;;;-1.25;100.00;102136.56;5018722;28;20376;-79
2022/03/16 02:36:43;;;;;;;68.90;59.28;;;;;;;-0.97;100.00;102135.72;5034458;28;20402;-80
2022/03/16 02:39:10;;;;;;;126.63;76.53;;;;;;;-0.83;100.00;102142.66;5025350;28;20050;-80
2022/03/16 02:41:38;;;;;;;336.25;131.18;;;;;;;-0.73;100.00;102142.91;5024972;28;20115;-80
2022/03/16 02:44:05;;;;;;;274.27;111.82;;;;;;;-0.70;100.00;102137.50;5025982;28;20398;-80
2022/03/16 02:46:33;;;;;;;176.55;89.75;;;;;;;-0.71;100.00;102125.38;5023528;28;20131;-79
2022/03/16 02:48:59;;;;;;;470.13;184.68;;;;;;;-0.68;100.00;102138.25;5021062;28;20453;-79
2022/03/16 02:51:26;;;;;;;71.70;64.57;;;;;;;-0.73;100.00;102128.09;5024695;28;20064;-83
2022/03/16 02:53:53;;;;;;;628.78;250.00;;;;;;;-0.65;100.00;102117.16;5026696;28;20057;-79
2022/03/16 02:56:20;;;;;;;209.30;99.38;;;;;;;-0.69;100.00;102120.91;5023407;28;20136;-82
2022/03/16 02:58:48;;;;;;;164.65;90.78;;;;;;;-0.69;100.00;102120.91;5029131;28;20049;-79
2022/03/16 03:01:15;;;;;;;164.55;87.00;;;;;;;-0.61;100.00;102118.63;5136656;22;20167;-79
2022/03/16 03:03:43;;;;;;;530.75;204.43;;;;;;;-0.58;100.00;102115.00;5009159;28;20053;-78
2022/03/16 03:06:10;;;;;;;291.17;118.18;;;;;;;-0.71;100.00;102109.72;5004187;28;20136;-80
2022/03/16 03:08:37;;;;;;;463.60;185.52;;;;;;;-0.79;100.00;102106.75;5004810;28;20072;-79
2022/03/16 03:11:04;;;;;;;86.90;66.28;;;;;;;-0.96;100.00;102107.84;5012183;28;20053;-79
2022/03/16 03:13:30;;;;;;;65.18;58.65;;;;;;;-0.88;100.00;102107.34;5004814;28;20104;-79
2022/03/16 03:15:59;;;;;;;67.57;60.78;;;;;;;-0.80;100.00;102100.72;5014992;28;20621;-80
2022/03/16 03:18:25;;;;;;;77.35;69.25;;;;;;;-0.68;100.00;102090.44;5003984;28;20119;-79
2022/03/16 03:20:52;;;;;;;76.53;69.32;;;;;;;-0.82;100.00;102084.31;5014229;28;20046;-81
2022/03/16 03:23:19;;;;;;;78.88;71.03;;;;;;;-0.72;100.00;102097.63;5005533;28;20123;-79
2022/03/16 03:25:46;;;;;;;70.78;64.35;;;;;;;-0.65;100.00;102104.13;5008684;28;20050;-82
2022/03/16 03:28:14;;;;;;;66.40;60.50;;;;;;;-0.62;100.00;102093.47;5008661;28;20366;-78
2022/03/16 03:30:41;;;;;;;67.45;61.40;;;;;;;-0.76;100.00;102073.47;5005868;28;20104;-78
2022/03/16 03:33:09;;;;;;;70.15;64.03;;;;;;;-0.76;100.00;102077.88;5011161;28;20120;-78
2022/03/16 03:35:36;;;;;;;67.25;61.30;;;;;;;-0.73;100.00;102080.28;5002780;28;20057;-80
2022/03/16 03:38:02;;;;;;;64.45;58.03;;;;;;;-0.82;100.00;102086.09;5007059;28;20120;-81
2022/03/16 03:40:29;;;;;;;67.18;60.67;;;;;;;-0.74;100.00;102084.66;5004237;28;20053;-79
2022/03/16 03:42:56;;;;;;;103.10;69.18;;;;;;;-0.72;100.00;102079.38;5013327;28;20041;-79
2022/03/16 03:45:23;;;;;;;428.50;164.85;;;;;;;-0.71;100.00;102060.97;5014367;28;20049;-80
2022/03/16 03:47:49;;;;;;;88.03;71.05;;;;;;;-0.73;100.00;102065.47;5004383;28;20054;-79
2022/03/16 03:50:19;;;;;;;75.97;66.15;;;;;;;-0.61;100.00;102070.81;5004854;28;20058;-78
2022/03/16 03:52:47;;;;;;;66.80;60.78;;;;;;;-0.56;100.00;102053.94;5004748;28;20113;-80
2022/03/16 03:55:13;;;;;;;92.70;73.18;;;;;;;-0.68;100.00;102053.91;5007172;28;20073;-79
2022/03/16 03:57:41;;;;;;;68.60;61.78;;;;;;;-0.64;100.00;102040.53;5008891;28;20112;-79
2022/03/16 04:00:09;;;;;;;149.68;89.78;;;;;;;-0.55;100.00;102042.53;5003201;28;20620;-80
2022/03/16 04:02:36;;;;;;;246.18;123.93;;;;;;;-0.56;100.00;102032.22;4998689;28;20070;-79
2022/03/16 04:05:04;;;;;;;107.35;78.13;;;;;;;-0.52;100.00;102036.28;5002433;28;20115;-79
2022/03/16 04:07:32;;;;;;;62.72;56.92;;;;;;;-0.63;100.00;102031.78;5004549;28;20100;-81
2022/03/16 04:09:59;;;;;;;63.67;57.70;;;;;;;-0.57;100.00;102017.50;5000347;28;20046;-79
2022/03/16 04:12:26;;;;;;;60.47;53.95;;;;;;;-0.51;100.00;102019.72;5003048;28;20046;-80
2022/03/16 04:14:53;;;;;;;61.42;55.30;;;;;;;-0.59;100.00;102019.38;5014130;28;20050;-77
2022/03/16 04:17:20;;;;;;;63.67;57.78;;;;;;;-0.57;100.00;102022.72;5016488;28;20053;-79
2022/03/16 04:19:47;;;;;;;62.60;57.08;;;;;;;-0.61;100.00;102016.03;5008728;28;20111;-78
2022/03/16 04:22:13;;;;;;;63.42;57.28;;;;;;;-0.65;100.00;102023.22;5010141;28;20042;-80
2022/03/16 04:24:42;;;;;;;61.85;55.92;;;;;;;-0.65;100.00;102017.16;5015056;28;20133;-81
2022/03/16 04:27:08;;;;;;;66.05;60.13;;;;;;;-0.81;100.00;102027.78;5006633;28;20428;-78
2022/03/16 04:29:35;;;;;;;62.55;56.90;;;;;;;-0.87;100.00;102026.41;5017039;28;20050;-81
2022/03/16 04:32:02;;;;;;;61.67;56.10;;;;;;;-0.87;100.00;102028.19;5012404;28;20050;-80
2022/03/16 04:34:28;;;;;;;56.33;50.90;;;;;;;-0.77;100.00;102014.41;5010673;28;20058;-80
2022/03/16 04:36:55;;;;;;;60.40;54.65;;;;;;;-0.77;100.00;102016.19;5009775;28;20046;-79
2022/03/16 04:39:22;;;;;;;65.15;58.08;;;;;;;-0.62;100.00;102014.34;5000091;28;20536;-80
2022/03/16 04:41:50;;;;;;;67.15;58.67;;;;;;;-0.56;100.00;102011.34;5003766;28;20057;-79
2022/03/16 04:44:17;;;;;;;61.47;55.35;;;;;;;-0.60;100.00;102008.09;5013417;28;20054;-78
2022/03/16 04:46:44;;;;;;;62.53;56.03;;;;;;;-0.65;100.00;102006.72;5013136;28;20124;-78
2022/03/16 04:49:11;;;;;;;62.22;55.90;;;;;;;-0.60;100.00;102005.50;5012625;28;20096;-78
2022/03/16 04:51:39;;;;;;;63.47;57.25;;;;;;;-0.60;100.00;102000.28;5008288;28;20046;-79
2022/03/16 04:54:05;;;;;;;57.03;51.55;;;;;;;-0.56;100.00;101993.06;5007699;28;20092;-80
2022/03/16 04:56:34;;;;;;;55.72;50.72;;;;;;;-0.52;100.00;101986.69;5008634;28;20050;-81
2022/03/16 04:59:02;;;;;;;54.45;49.20;;;;;;;-0.43;100.00;101990.47;5006221;28;20042;-79
2022/03/16 05:01:29;;;;;;;57.63;52.42;;;;;;;-0.52;100.00;101999.75;5014437;28;20127;-80
2022/03/16 05:03:55;;;;;;;58.20;52.90;;;;;;;-0.49;100.00;101991.72;5009588;28;20469;-81
2022/03/16 05:06:22;;;;;;;54.88;50.05;;;;;;;-0.49;100.00;101976.03;5007507;28;20053;-81
2022/03/16 05:08:50;;;;;;;57.35;51.83;;;;;;;-0.42;100.00;101981.69;5011046;28;20119;-79
2022/03/16 05:11:17;;;;;;;55.97;50.50;;;;;;;-0.81;100.00;101984.25;5006481;28;20053;-79
2022/03/16 05:13:44;;;;;;;59.25;53.40;;;;;;;-0.67;100.00;101987.72;5010015;28;20050;-83
2022/03/16 05:16:12;;;;;;;59.67;53.90;;;;;;;-0.92;100.00;101992.78;5015798;28;20053;-80
2022/03/16 05:18:40;;;;;;;61.78;55.70;;;;;;;-0.71;100.00;101981.88;5007732;28;20477;-80
2022/03/16 05:21:08;;;;;;;59.85;53.83;;;;;;;-1.05;100.00;102001.50;5008874;28;20140;-80
2022/03/16 05:23:35;;;;;;;56.85;51.10;;;;;;;-0.83;100.00;101999.16;5006934;28;20487;-79
2022/03/16 05:26:01;;;;;;;69.65;63.35;;;;;;;-0.75;100.00;102006.50;5006624;28;20498;-79
2022/03/16 05:28:28;;;;;;;82.68;75.28;;;;;;;-0.46;100.00;101996.72;5008340;28;20054;-78
2022/03/16 05:30:55;;;;;;;85.78;77.78;;;;;;;-0.42;100.00;101985.16;4999737;28;20050;-81
2022/03/16 05:33:24;;;;;;;86.03;77.03;;;;;;;-0.37;100.00;101983.06;5009656;28;20043;-80
2022/03/16 05:35:51;;;;;;;94.07;83.82;;;;;;;-0.37;100.00;101982.22;5010032;28;20049;-80
2022/03/16 05:38:18;;;;;;;90.88;81.25;;;;;;;-0.54;100.00;101986.81;5001908;28;20466;-79
2022/03/16 05:40:45;;;;;;;98.22;87.45;;;;;;;-0.56;100.00;101985.25;5008395;28;20046;-79
2022/03/16 05:43:13;;;;;;;83.65;75.57;;;;;;;-0.59;100.00;101975.84;5009104;28;20478;-77
2022/03/16 05:45:40;;;;;;;85.47;77.10;;;;;;;-0.83;100.00;101986.13;4996736;28;20050;-79
2022/03/16 05:48:07;;;;;;;83.20;75.15;;;;;;;-0.54;100.00;101985.97;5012887;28;20062;-79
2022/03/16 05:50:35;;;;;;;82.60;74.65;;;;;;;-0.56;100.00;101982.63;5010222;28;20057;-79
2022/03/16 05:53:03;;;;;;;85.32;76.75;;;;;;;-0.81;100.00;101999.09;5004938;28;20065;-80
2022/03/16 05:55:30;;;;;;;89.53;80.53;;;;;;;-0.64;100.00;101996.19;5014943;28;20050;-81
2022/03/16 05:57:57;;;;;;;86.30;77.70;;;;;;;-0.26;100.00;102003.22;5011181;28;20050;-83
2022/03/16 06:00:24;;;;;;;89.55;80.85;;;;;;;-0.35;100.00;102016.91;5016963;28;20057;-82
2022/03/16 06:02:51;;;;;;;88.63;79.63;;;;;;;-0.25;100.00;102012.72;5013145;28;20447;-79
2022/03/16 06:05:18;;;;;;;91.32;82.07;;;;;;;-0.29;100.00;102004.25;5011443;28;20045;-80
2022/03/16 06:07:46;;;;;;;92.10;82.75;;;;;;;-0.30;100.00;102001.78;5008863;28;20123;-81
2022/03/16 06:10:16;;;;;;;97.32;87.25;;;;;;;-0.43;100.00;102011.34;5005971;28;20050;-80
2022/03/16 06:12:55;;;;;;;99.88;89.57;;;;;;;-0.20;100.00;102002.81;5008832;28;20129;-79
2022/03/16 06:15:24;;;;;;;92.18;82.70;;;;;;;2.58;100.00;102006.72;5010627;28;20140;-80
2022/03/16 06:17:51;;;;;;;108.07;95.90;;;;;;;2.05;100.00;102001.25;5012939;28;20046;-79
2022/03/16 06:20:18;;;;;;;103.07;86.68;;;;;;;0.04;100.00;102000.28;5014986;28;20054;-79
2022/03/16 06:22:46;;;;;;;101.50;90.45;;;;;;;0.07;100.00;101988.81;5004934;28;20046;-78
2022/03/16 06:25:13;;;;;;;101.97;90.82;;;;;;;-0.04;100.00;101987.75;5005654;28;20533;-78
2022/03/16 06:27:41;;;;;;;94.82;85.22;;;;;;;0.07;100.00;101973.94;5004868;28;20054;-79
2022/03/16 06:30:09;;;;;;;92.30;83.20;;;;;;;0.18;100.00;101981.03;5015036;28;20506;-79
2022/03/16 06:32:36;;;;;;;89.80;81.05;;;;;;;0.32;100.00;101967.84;5014286;28;20552;-78
2022/03/16 06:35:03;;;;;;;95.47;85.68;;;;;;;0.23;100.00;101963.25;5014254;28;20115;-78
2022/03/16 06:37:30;;;;;;;87.28;78.40;;;;;;;0.39;100.00;101963.00;5008989;28;20058;-78
2022/03/16 06:39:58;;;;;;;99.75;86.88;;;;;;;0.56;100.00;101967.88;5009119;28;20124;-78
2022/03/16 06:42:25;;;;;;;98.20;88.25;;;;;;;0.56;100.00;101953.97;5007839;28;20062;-80
2022/03/16 06:44:52;;;;;;;97.78;87.20;;;;;;;0.48;100.00;101951.06;5015911;28;20496;-79
2022/03/16 06:47:18;;;;;;;98.50;86.75;;;;;;;0.39;100.00;101952.53;5014161;28;20058;-78
2022/03/16 06:49:46;;;;;;;105.78;85.40;;;;;;;-0.08;100.00;101959.34;5011643;28;20041;-78
2022/03/16 06:52:12;;;;;;;99.03;86.53;;;;;;;0.14;100.00;101974.34;5012541;28;20073;-77
2022/03/16 06:54:39;;;;;;;101.80;84.45;;;;;;;0.49;100.00;101965.81;5013427;28;20053;-78
2022/03/16 06:57:07;;;;;;;93.88;83.75;;;;;;;0.72;100.00;101972.81;5007659;28;20053;-77
2022/03/16 06:59:35;;;;;;;90.15;81.07;;;;;;;0.56;100.00;101975.72;5011934;28;20120;-78
2022/03/16 07:02:02;;;;;;;94.75;85.03;;;;;;;0.50;100.00;101965.69;5013117;28;20414;-79
2022/03/16 07:04:30;;;;;;;85.15;77.25;;;;;;;0.61;100.00;101975.41;5014256;28;20042;-79
2022/03/16 07:06:56;;;;;;;89.20;80.18;;;;;;;0.71;100.00;101960.69;5011002;28;20183;-79
2022/03/16 07:09:23;;;;;;;89.15;80.10;;;;;;;0.91;100.00;101951.41;5007831;28;20042;-79
2022/03/16 07:11:50;;;;;;;91.60;81.70;;;;;;;1.00;100.00;101953.34;5012657;28;20057;-79
2022/03/16 07:14:34;;;;;;;90.32;80.88;;;;;;;0.71;100.00;101957.25;5012877;28;20049;-79
2022/03/16 07:17:02;;;;;;;89.18;79.97;;;;;;;1.03;100.00;101947.88;5009259;28;20053;-79
2022/03/16 07:19:29;;;;;;;90.25;81.55;;;;;;;1.06;100.00;101944.19;5012669;28;20124;-80
2022/03/16 07:21:58;;;;;;;88.03;79.05;;;;;;;1.10;100.00;101945.66;5012126;28;20046;-78
2022/03/16 07:24:26;;;;;;;85.40;76.90;;;;;;;1.20;100.00;101943.16;5007478;28;20128;-80
2022/03/16 07:26:54;;;;;;;87.88;79.88;;;;;;;1.40;100.00;101941.69;5008990;28;20050;-80
2022/03/16 07:29:22;;;;;;;88.72;80.03;;;;;;;1.48;100.00;101944.53;5009975;28;20056;-79
2022/03/16 07:31:49;;;;;;;90.57;82.03;;;;;;;1.34;100.00;101940.34;5008026;28;20383;-80
2022/03/16 07:34:16;;;;;;;87.80;79.25;;;;;;;1.26;100.00;101943.53;5011550;28;20045;-80
2022/03/16 07:36:43;;;;;;;84.78;76.57;;;;;;;1.48;100.00;101942.75;5013489;28;20127;-80
2022/03/16 07:39:11;;;;;;;94.22;84.72;;;;;;;1.60;100.00;101938.34;5011137;28;20061;-79
2022/03/16 07:41:38;;;;;;;94.75;85.28;;;;;;;1.65;100.00;101938.84;5011157;28;20486;-80
2022/03/16 07:44:05;;;;;;;94.38;84.57;;;;;;;1.70;100.00;101941.97;5010363;28;20492;-79
2022/03/16 07:46:34;;;;;;;98.57;88.55;;;;;;;1.79;100.00;101949.09;5005412;28;20049;-78
2022/03/16 07:49:01;;;;;;;87.82;78.57;;;;;;;1.77;100.00;101940.53;5013991;28;20042;-79
2022/03/16 07:51:27;;;;;;;98.00;87.72;;;;;;;1.98;100.00;101950.28;5012302;28;20054;-80
2022/03/16 07:53:54;;;;;;;91.97;82.22;;;;;;;1.84;100.00;101949.56;5008266;28;20112;-79
2022/03/16 07:56:21;;;;;;;94.93;85.15;;;;;;;2.00;100.00;101951.03;5007719;28;20073;-79
2022/03/16 07:58:48;;;;;;;92.18;82.93;;;;;;;1.83;100.00;101950.53;5011826;28;20143;-79
2022/03/16 08:01:16;;;;;;;88.78;79.93;;;;;;;2.04;100.00;101949.81;5008466;28;20053;-80
2022/03/16 08:03:44;;;;;;;84.18;75.60;;;;;;;2.21;100.00;101954.56;5012395;28;20046;-78
2022/03/16 08:06:11;;;;;;;94.60;85.18;;;;;;;2.19;100.00;101951.22;5012190;28;20125;-80
2022/03/16 08:08:39;;;;;;;85.55;77.43;;;;;;;2.26;100.00;101954.19;5010168;28;20050;-79
2022/03/16 08:11:06;;;;;;;87.43;79.93;;;;;;;2.28;100.00;101952.28;5008979;28;20046;-81
2022/03/16 08:13:33;;;;;;;92.05;83.50;;;;;;;2.39;100.00;101936.56;5012741;28;20126;-80
2022/03/16 08:16:01;;;;;;;89.60;80.50;;;;;;;2.28;100.00;101934.78;5007558;28;20061;-78
2022/03/16 08:18:28;;;;;;;98.03;88.40;;;;;;;2.21;100.00;101935.38;5010714;28;20045;-79
2022/03/16 08:20:57;;;;;;;96.35;86.13;;;;;;;2.29;100.00;101938.22;5013520;28;20054;-80
2022/03/16 08:23:24;;;;;;;91.65;81.95;;;;;;;2.42;100.00;101940.69;5012418;28;20121;-79
2022/03/16 08:25:51;;;;;;;99.03;89.07;;;;;;;2.50;100.00;101940.91;5011572;28;20521;-80
2022/03/16 08:28:18;;;;;;;97.70;88.13;;;;;;;2.33;100.00;101936.19;5007809;28;20418;-80
2022/03/16 08:30:44;;;;;;;94.68;85.57;;;;;;;2.65;100.00;101930.97;5013775;28;20478;-80
2022/03/16 08:33:11;;;;;;;92.20;83.13;;;;;;;2.62;100.00;101929.44;5012035;28;20061;-79
2022/03/16 08:35:39;;;;;;;95.05;85.80;;;;;;;2.46;100.00;101929.03;5009057;28;20042;-79
2022/03/16 08:38:07;;;;;;;94.22;85.03;;;;;;;2.67;100.00;101923.81;5010293;28;20058;-80
2022/03/16 08:40:34;;;;;;;84.55;77.07;;;;;;;2.81;100.00;101912.19;5009699;28;20072;-78
2022/03/16 08:43:00;;;;;;;87.05;79.35;;;;;;;2.79;100.00;101904.47;5005359;28;20077;-80
2022/03/16 08:45:28;;;;;;;85.15;76.60;;;;;;;2.90;100.00;101909.63;5010824;28;20046;-78
2022/03/16 08:47:55;;;;;;;90.13;80.95;;;;;;;2.96;100.00;101913.56;5004468;28;20050;-80
2022/03/16 08:50:22;;;;;;;83.75;75.75;;;;;;;3.00;100.00;101914.16;5005128;28;20132;-78
2022/03/16 08:52:49;;;;;;;85.88;78.50;;;;;;;2.74;100.00;101915.31;5011711;28;20081;-80
2022/03/16 08:55:17;;;;;;;86.70;79.03;;;;;;;3.02;100.00;101901.72;5005983;28;20402;-80
2022/03/16 08:57:44;;;;;;;87.32;79.10;;;;;;;3.03;100.00;101906.84;5004006;28;20058;-79
2022/03/16 09:00:15;;;;;;;86.30;78.45;;;;;;;2.92;100.00;101905.09;5014858;28;20058;-78
2022/03/16 09:02:42;;;;;;;91.80;83.10;;;;;;;2.83;100.00;101902.41;5012245;28;20057;-79
2022/03/16 09:05:09;;;;;;;89.00;80.40;;;;;;;3.08;100.00;101901.19;5007438;28;20100;-80
2022/03/16 09:07:38;;;;;;;89.10;80.97;;;;;;;3.20;100.00;101889.66;5018051;28;20115;-79
2022/03/16 09:10:05;;;;;;;86.60;78.13;;;;;;;3.24;100.00;101895.50;5013980;28;20057;-78
2022/03/16 09:12:34;;;;;;;85.43;77.60;;;;;;;3.33;100.00;101898.19;5005760;28;20128;-80
2022/03/16 09:15:00;;;;;;;86.82;78.85;;;;;;;3.46;100.00;101899.78;5017051;28;20085;-80
2022/03/16 09:17:28;;;;;;;87.97;79.45;;;;;;;3.46;100.00;101895.34;5017222;28;20049;-78
2022/03/16 09:19:55;;;;;;;93.03;84.47;;;;;;;3.43;100.00;101891.19;5010625;28;20403;-80
2022/03/16 09:22:23;;;;;;;92.70;83.85;;;;;;;3.61;100.00;101893.22;5009076;28;20050;-80
2022/03/16 09:24:50;;;;;;;89.82;82.00;;;;;;;3.63;100.00;101888.66;5015298;28;20378;-79
2022/03/16 09:27:17;;;;;;;90.32;81.97;;;;;;;3.68;100.00;101891.72;5018474;28;20443;-80
2022/03/16 09:29:46;;;;;;;92.00;83.35;;;;;;;3.75;100.00;101885.00;5008216;28;20485;-79
2022/03/16 09:32:14;;;;;;;90.05;81.28;;;;;;;3.86;100.00;101882.25;5021040;28;20076;-80
2022/03/16 09:34:42;;;;;;;88.35;80.32;;;;;;;3.94;100.00;101884.22;5013585;28;20054;-79
2022/03/16 09:37:09;;;;;;;81.60;73.88;;;;;;;4.02;100.00;101871.22;5016743;28;20046;-80
2022/03/16 09:39:37;;;;;;;86.97;79.38;;;;;;;3.96;100.00;101869.13;5010753;28;20537;-80
2022/03/16 09:42:05;;;;;;;88.50;80.47;;;;;;;3.96;100.00;101873.56;5011513;28;20038;-80
2022/03/16 09:44:32;;;;;;;87.68;79.78;;;;;;;4.31;100.00;101873.06;5008676;28;20058;-80
2022/03/16 09:47:00;;;;;;;90.85;82.40;;;;;;;4.27;100.00;101864.63;5002358;28;20050;-78
2022/03/16 09:49:28;;;;;;;87.50;79.85;;;;;;;4.31;100.00;101860.75;5013839;28;20467;-79
2022/03/16 09:51:55;;;;;;;88.28;80.13;;;;;;;4.24;100.00;101864.09;5015618;28;20053;-79
2022/03/16 09:54:22;;;;;;;84.07;75.70;;;;;;;3.80;100.00;101863.56;5013641;28;20092;-80
2022/03/16 09:56:49;;;;;;;88.45;79.20;;;;;;;3.99;100.00;101860.97;5016333;28;20050;-80
2022/03/16 09:59:17;;;;;;;86.10;78.30;;;;;;;4.17;100.00;101870.84;5010303;28;20049;-79
2022/03/16 10:01:44;;;;;;;87.00;79.13;;;;;;;4.50;100.00;101862.56;5012890;28;20045;-78
2022/03/16 10:04:13;;;;;;;85.72;78.10;;;;;;;4.29;100.00;101867.09;5011072;28;20056;-78
2022/03/16 10:06:42;;;;;;;73.50;66.97;;;;;;;4.34;100.00;101876.25;5011566;28;20042;-79
2022/03/16 10:15:07;;;;;;;80.82;74.00;;;;;;;4.79;100.00;101849.41;5010105;28;20057;-78
2022/03/16 10:17:46;;;;;;;78.65;71.60;;;;;;;5.06;100.00;101858.38;5008141;28;20058;-80
2022/03/16 10:20:27;;;;;;;87.10;79.75;;;;;;;5.00;100.00;101862.41;5008594;28;20060;-80
2022/03/16 10:22:58;;;;;;;79.63;73.10;;;;;;;5.14;100.00;101860.28;5010975;28;20057;-79
2022/03/16 10:25:26;;;;;;;83.03;76.47;;;;;;;5.27;100.00;101850.28;5010898;28;20050;-80
2022/03/16 10:27:53;;;;;;;74.35;67.95;;;;;;;5.25;100.00;101839.03;5016097;28;20390;-79
2022/03/16 10:30:21;;;;;;;76.85;69.97;;;;;;;5.25;100.00;101837.22;5016087;28;20092;-78
2022/03/16 10:32:54;;;;;;;92.55;84.28;;;;;;;5.24;100.00;101824.22;5016268;28;20157;-80
2022/03/16 10:35:25;;;;;;;86.50;79.13;;;;;;;5.27;100.00;101822.13;5011943;28;20152;-80
2022/03/16 10:37:53;;;;;;;79.00;71.57;;;;;;;5.37;100.00;101830.00;5015040;28;20073;-79
2022/03/16 10:40:23;;;;;;;80.32;72.90;;;;;;;5.38;100.00;101823.72;5015712;28;20074;-80
2022/03/16 10:48:23;;;;;;;98.20;82.25;;;;;;;5.30;100.00;101828.09;5005774;28;20103;-80
2022/03/16 10:50:57;;;;;;;88.35;80.00;;;;;;;5.45;100.00;101826.66;5013370;28;20125;-80
2022/03/16 10:53:29;;;;;;;90.18;81.78;;;;;;;5.63;100.00;101830.16;5013930;28;20050;-79
2022/03/16 10:55:58;;;;;;;100.45;88.25;;;;;;;5.68;100.00;101825.25;5016134;28;20065;-80
2022/03/16 10:58:25;;;;;;;95.47;83.13;;;;;;;5.75;100.00;101830.81;5012830;28;20060;-80
2022/03/16 11:00:53;;;;;;;90.65;80.90;;;;;;;5.84;100.00;101831.69;5016599;28;20460;-80
2022/03/16 11:03:23;;;;;;;93.00;81.05;;;;;;;5.80;100.00;101835.63;5015389;28;20054;-80
2022/03/16 11:05:52;;;;;;;94.65;83.85;;;;;;;5.83;100.00;101836.16;5010903;28;20469;-80
2022/03/16 11:08:21;;;;;;;100.75;85.57;;;;;;;5.93;100.00;101831.69;5008523;28;20061;-80
2022/03/16 11:10:48;;;;;;;112.63;90.63;;;;;;;5.92;100.00;101834.44;5013848;28;20042;-79
2022/03/16 11:13:29;;;;;;;124.32;97.78;;;;;;;5.95;100.00;101835.00;5012727;28;20050;-80
2022/03/16 11:15:57;;;;;;;129.50;95.65;;;;;;;5.93;100.00;101833.47;5019839;28;20053;-78